sensor_id;sensor_type;location;lat;lon;timestamp;pressure;altitude;pressure_sealevel;temperature;humidity
54389;BME280;40975;50.390;8.640;2023-11-21T00:02:12;98389.06;;;7.21;100.00
54389;BME280;40975;50.390;8.640;2023-11-21T00:04:37;98395.44;;;7.19;100.00
54389;BME280;40975;50.390;8.640;2023-11-21T00:07:03;98389.47;;;7.16;100.00
54389;BME280;40975;50.390;8.640;2023-11-21T00:09:28;98395.88;;;7.14;100.00
54389;BME280;40975;50.390;8.640;2023-11-21T00:11:54;98391.28;;;7.16;100.00
54389;BME280;40975;50.390;8.640;2023-11-21T00:14:19;98390.31;;;7.17;100.00
54389;BME280;40975;50.390;8.640;2023-11-21T00:16:44;98388.13;;;7.12;100.00
54389;BME280;40975;50.390;8.640;2023-11-21T00:19:11;98386.56;;;7.10;100.00
54389;BME280;40975;50.390;8.640;2023-11-21T00:21:36;98385.16;;;7.15;100.00
54389;BME280;40975;50.390;8.640;2023-11-21T00:24:02;98375.91;;;7.11;100.00
54389;BME280;40975;50.390;8.640;2023-11-21T00:26:28;98385.31;;;7.14;100.00
54389;BME280;40975;50.390;8.640;2023-11-21T00:29:00;98386.72;;;7.18;100.00
54389;BME280;40975;50.390;8.640;2023-11-21T00:31:25;98389.91;;;7.12;100.00
54389;BME280;40975;50.390;8.640;2023-11-21T00:33:51;98391.72;;;7.11;100.00
54389;BME280;40975;50.390;8.640;2023-11-21T00:36:17;98390.75;;;7.12;100.00
54389;BME280;40975;50.390;8.640;2023-11-21T00:38:43;98387.00;;;7.05;100.00
54389;BME280;40975;50.390;8.640;2023-11-21T00:41:08;98397.97;;;7.00;100.00
54389;BME280;40975;50.390;8.640;2023-11-21T00:43:33;98396.59;;;7.06;100.00
54389;BME280;40975;50.390;8.640;2023-11-21T00:46:04;98397.97;;;7.10;100.00
54389;BME280;40975;50.390;8.640;2023-11-21T00:48:29;98389.78;;;7.13;100.00
54389;BME280;40975;50.390;8.640;2023-11-21T00:50:54;98390.88;;;7.11;100.00
54389;BME280;40975;50.390;8.640;2023-11-21T00:53:21;98390.44;;;7.15;100.00
54389;BME280;40975;50.390;8.640;2023-11-21T00:55:46;98397.28;;;7.18;100.00
54389;BME280;40975;50.390;8.640;2023-11-21T00:58:12;98396.28;;;7.19;100.00
54389;BME280;40975;50.390;8.640;2023-11-21T01:00:38;98392.81;;;7.19;100.00
54389;BME280;40975;50.390;8.640;2023-11-21T01:03:05;98388.94;;;7.23;100.00
54389;BME280;40975;50.390;8.640;2023-11-21T01:05:30;98393.63;;;7.19;100.00
54389;BME280;40975;50.390;8.640;2023-11-21T01:07:55;98394.06;;;7.24;100.00
54389;BME280;40975;50.390;8.640;2023-11-21T01:10:21;98405.00;;;7.29;100.00
54389;BME280;40975;50.390;8.640;2023-11-21T01:12:46;98407.34;;;7.32;100.00
54389;BME280;40975;50.390;8.640;2023-11-21T01:15:12;98409.03;;;7.34;100.00
54389;BME280;40975;50.390;8.640;2023-11-21T01:17:38;98423.91;;;7.35;100.00
54389;BME280;40975;50.390;8.640;2023-11-21T01:20:04;98419.59;;;7.34;100.00
54389;BME280;40975;50.390;8.640;2023-11-21T01:22:36;98426.53;;;7.35;100.00
54389;BME280;40975;50.390;8.640;2023-11-21T01:25:02;98427.66;;;7.32;100.00
54389;BME280;40975;50.390;8.640;2023-11-21T01:27:29;98424.59;;;7.37;100.00
54389;BME280;40975;50.390;8.640;2023-11-21T01:29:55;98429.03;;;7.36;100.00
54389;BME280;40975;50.390;8.640;2023-11-21T01:32:21;98427.78;;;7.40;100.00
54389;BME280;40975;50.390;8.640;2023-11-21T01:34:47;98428.59;;;7.41;100.00
54389;BME280;40975;50.390;8.640;2023-11-21T01:37:13;98425.25;;;7.39;100.00
54389;BME280;40975;50.390;8.640;2023-11-21T01:39:38;98427.63;;;7.42;100.00
54389;BME280;40975;50.390;8.640;2023-11-21T01:42:05;98435.41;;;7.43;100.00
54389;BME280;40975;50.390;8.640;2023-11-21T01:44:30;98433.06;;;7.40;100.00
54389;BME280;40975;50.390;8.640;2023-11-21T01:46:56;98438.34;;;7.40;100.00
54389;BME280;40975;50.390;8.640;2023-11-21T01:49:23;98448.88;;;7.40;100.00
54389;BME280;40975;50.390;8.640;2023-11-21T01:51:49;98447.06;;;7.41;100.00
54389;BME280;40975;50.390;8.640;2023-11-21T01:54:16;98442.63;;;7.41;100.00
54389;BME280;40975;50.390;8.640;2023-11-21T01:56:45;98445.28;;;7.41;100.00
54389;BME280;40975;50.390;8.640;2023-11-21T01:59:12;98444.44;;;7.41;100.00
54389;BME280;40975;50.390;8.640;2023-11-21T02:01:39;98453.03;;;7.43;100.00
54389;BME280;40975;50.390;8.640;2023-11-21T02:04:05;98448.63;;;7.43;100.00
54389;BME280;40975;50.390;8.640;2023-11-21T02:06:30;98449.44;;;7.44;100.00
54389;BME280;40975;50.390;8.640;2023-11-21T02:08:56;98453.91;;;7.43;100.00
54389;BME280;40975;50.390;8.640;2023-11-21T02:11:21;98446.38;;;7.49;100.00
54389;BME280;40975;50.390;8.640;2023-11-21T02:13:46;98451.38;;;7.52;100.00
54389;BME280;40975;50.390;8.640;2023-11-21T02:16:12;98458.00;;;7.56;100.00
54389;BME280;40975;50.390;8.640;2023-11-21T02:18:38;98459.13;;;7.53;100.00
54389;BME280;40975;50.390;8.640;2023-11-21T02:21:05;98445.94;;;7.53;100.00
54389;BME280;40975;50.390;8.640;2023-11-21T02:23:30;98448.13;;;7.58;100.00
54389;BME280;40975;50.390;8.640;2023-11-21T02:25:56;98448.72;;;7.52;100.00
54389;BME280;40975;50.390;8.640;2023-11-21T02:28:21;98450.41;;;7.53;100.00
54389;BME280;40975;50.390;8.640;2023-11-21T02:30:52;98443.44;;;7.52;100.00
54389;BME280;40975;50.390;8.640;2023-11-21T02:33:21;98439.84;;;7.53;100.00
54389;BME280;40975;50.390;8.640;2023-11-21T02:35:47;98441.34;;;7.55;100.00
54389;BME280;40975;50.390;8.640;2023-11-21T02:38:13;98450.50;;;7.51;100.00
54389;BME280;40975;50.390;8.640;2023-11-21T02:40:39;98452.03;;;7.54;100.00
54389;BME280;40975;50.390;8.640;2023-11-21T02:43:04;98458.00;;;7.56;100.00
54389;BME280;40975;50.390;8.640;2023-11-21T02:45:31;98457.19;;;7.55;100.00
54389;BME280;40975;50.390;8.640;2023-11-21T02:47:57;98460.25;;;7.51;100.00
54389;BME280;40975;50.390;8.640;2023-11-21T02:50:22;98454.00;;;7.52;100.00
54389;BME280;40975;50.390;8.640;2023-11-21T02:52:47;98450.50;;;7.51;100.00
54389;BME280;40975;50.390;8.640;2023-11-21T02:55:13;98460.25;;;7.51;100.00
54389;BME280;40975;50.390;8.640;2023-11-21T02:57:38;98452.47;;;7.49;100.00
54389;BME280;40975;50.390;8.640;2023-11-21T03:00:04;98462.19;;;7.49;100.00
54389;BME280;40975;50.390;8.640;2023-11-21T03:02:33;98469.69;;;7.53;100.00
54389;BME280;40975;50.390;8.640;2023-11-21T03:05:02;98463.97;;;7.58;100.00
54389;BME280;40975;50.390;8.640;2023-11-21T03:07:27;98467.31;;;7.60;100.00
54389;BME280;40975;50.390;8.640;2023-11-21T03:09:52;98464.84;;;7.49;100.00
54389;BME280;40975;50.390;8.640;2023-11-21T03:12:18;98467.63;;;7.47;100.00
54389;BME280;40975;50.390;8.640;2023-11-21T03:14:44;98469.53;;;7.55;100.00
54389;BME280;40975;50.390;8.640;2023-11-21T03:17:10;98464.47;;;7.43;100.00
54389;BME280;40975;50.390;8.640;2023-11-21T03:19:35;98476.38;;;7.57;100.00
54389;BME280;40975;50.390;8.640;2023-11-21T03:22:00;98474.59;;;7.48;100.00
54389;BME280;40975;50.390;8.640;2023-11-21T03:24:26;98479.56;;;7.51;100.00
54389;BME280;40975;50.390;8.640;2023-11-21T03:26:51;98485.97;;;7.49;100.00
54389;BME280;40975;50.390;8.640;2023-11-21T03:29:17;98476.38;;;7.47;100.00
54389;BME280;40975;50.390;8.640;2023-11-21T03:31:42;98484.31;;;7.47;100.00
54389;BME280;40975;50.390;8.640;2023-11-21T03:34:14;98496.94;;;7.44;100.00
54389;BME280;40975;50.390;8.640;2023-11-21T03:36:40;98492.50;;;7.44;100.00
54389;BME280;40975;50.390;8.640;2023-11-21T03:39:05;98504.06;;;7.43;100.00
54389;BME280;40975;50.390;8.640;2023-11-21T03:41:30;98496.94;;;7.44;100.00
54389;BME280;40975;50.390;8.640;2023-11-21T03:43:56;98507.94;;;7.39;100.00
54389;BME280;40975;50.390;8.640;2023-11-21T03:46:21;98507.66;;;7.42;100.00
54389;BME280;40975;50.390;8.640;2023-11-21T03:48:46;98496.69;;;7.37;100.00
54389;BME280;40975;50.390;8.640;2023-11-21T03:51:11;98503.47;;;7.40;100.00
54389;BME280;40975;50.390;8.640;2023-11-21T03:53:37;98505.44;;;7.38;100.00
54389;BME280;40975;50.390;8.640;2023-11-21T03:56:02;98499.59;;;7.44;100.00
54389;BME280;40975;50.390;8.640;2023-11-21T03:58:28;98499.44;;;7.45;100.00
54389;BME280;40975;50.390;8.640;2023-11-21T04:00:54;98497.50;;;7.47;100.00
54389;BME280;40975;50.390;8.640;2023-11-21T04:03:19;98503.78;;;7.37;100.00
54389;BME280;40975;50.390;8.640;2023-11-21T04:05:44;98509.88;;;7.37;100.00
54389;BME280;40975;50.390;8.640;2023-11-21T04:08:11;98507.13;;;7.29;100.00
54389;BME280;40975;50.390;8.640;2023-11-21T04:10:36;98508.78;;;7.30;100.00
54389;BME280;40975;50.390;8.640;2023-11-21T04:13:01;98510.47;;;7.31;100.00
54389;BME280;40975;50.390;8.640;2023-11-21T04:15:27;98516.00;;;7.38;100.00
54389;BME280;40975;50.390;8.640;2023-11-21T04:17:52;98514.19;;;7.38;100.00
54389;BME280;40975;50.390;8.640;2023-11-21T04:20:17;98520.56;;;7.45;100.00
54389;BME280;40975;50.390;8.640;2023-11-21T04:22:44;98519.31;;;7.40;100.00
54389;BME280;40975;50.390;8.640;2023-11-21T04:25:10;98520.56;;;7.45;100.00
54389;BME280;40975;50.390;8.640;2023-11-21T04:27:36;98515.00;;;7.39;100.00
54389;BME280;40975;50.390;8.640;2023-11-21T04:30:02;98519.91;;;7.34;100.00
54389;BME280;40975;50.390;8.640;2023-11-21T04:32:27;98513.81;;;7.33;100.00
54389;BME280;40975;50.390;8.640;2023-11-21T04:34:53;98520.03;;;7.32;100.00
54389;BME280;40975;50.390;8.640;2023-11-21T04:37:18;98526.41;;;7.29;100.00
54389;BME280;40975;50.390;8.640;2023-11-21T04:39:43;98536.31;;;7.27;100.00
54389;BME280;40975;50.390;8.640;2023-11-21T04:42:09;98537.41;;;7.25;100.00
54389;BME280;40975;50.390;8.640;2023-11-21T04:44:34;98544.34;;;7.26;100.00
54389;BME280;40975;50.390;8.640;2023-11-21T04:46:59;98543.78;;;7.22;100.00
54389;BME280;40975;50.390;8.640;2023-11-21T04:49:25;98551.56;;;7.24;100.00
54389;BME280;40975;50.390;8.640;2023-11-21T04:51:50;98551.72;;;7.22;100.00
54389;BME280;40975;50.390;8.640;2023-11-21T04:54:15;98561.97;;;7.15;100.00
54389;BME280;40975;50.390;8.640;2023-11-21T04:56:41;98560.47;;;7.13;100.00
54389;BME280;40975;50.390;8.640;2023-11-21T04:59:07;98547.53;;;7.10;100.00
54389;BME280;40975;50.390;8.640;2023-11-21T05:01:32;98556.41;;;7.09;100.00
54389;BME280;40975;50.390;8.640;2023-11-21T05:03:57;98564.34;;;7.09;100.00
54389;BME280;40975;50.390;8.640;2023-11-21T05:06:23;98562.69;;;7.08;100.00
54389;BME280;40975;50.390;8.640;2023-11-21T05:08:49;98563.66;;;7.07;100.00
54389;BME280;40975;50.390;8.640;2023-11-21T05:11:24;98562.97;;;7.05;100.00
54389;BME280;40975;50.390;8.640;2023-11-21T05:13:49;98571.69;;;7.05;100.00
54389;BME280;40975;50.390;8.640;2023-11-21T05:16:15;98575.88;;;7.08;100.00
54389;BME280;40975;50.390;8.640;2023-11-21T05:18:40;98585.03;;;7.04;100.00
54389;BME280;40975;50.390;8.640;2023-11-21T05:21:06;98588.66;;;7.03;100.00
54389;BME280;40975;50.390;8.640;2023-11-21T05:23:31;98583.38;;;7.03;100.00
54389;BME280;40975;50.390;8.640;2023-11-21T05:25:56;98587.53;;;6.95;100.00
54389;BME280;40975;50.390;8.640;2023-11-21T05:28:22;98593.06;;;6.92;100.00
54389;BME280;40975;50.390;8.640;2023-11-21T05:30:47;98599.88;;;6.95;100.00
54389;BME280;40975;50.390;8.640;2023-11-21T05:33:14;98594.03;;;6.91;100.00
54389;BME280;40975;50.390;8.640;2023-11-21T05:35:39;98609.59;;;6.94;100.00
54389;BME280;40975;50.390;8.640;2023-11-21T05:38:05;98610.72;;;6.92;100.00
54389;BME280;40975;50.390;8.640;2023-11-21T05:40:30;98615.84;;;6.93;100.00
54389;BME280;40975;50.390;8.640;2023-11-21T05:42:55;98618.19;;;6.87;100.00
54389;BME280;40975;50.390;8.640;2023-11-21T05:45:21;98622.09;;;6.82;100.00
54389;BME280;40975;50.390;8.640;2023-11-21T05:47:46;98621.50;;;6.79;100.00
54389;BME280;40975;50.390;8.640;2023-11-21T05:50:14;98622.34;;;6.79;100.00
54389;BME280;40975;50.390;8.640;2023-11-21T05:52:41;98622.03;;;6.73;100.00
54389;BME280;40975;50.390;8.640;2023-11-21T05:55:07;98620.91;;;6.65;100.00
54389;BME280;40975;50.390;8.640;2023-11-21T05:57:34;98630.59;;;6.65;100.00
54389;BME280;40975;50.390;8.640;2023-11-21T06:00:14;98631.31;;;6.67;100.00
54389;BME280;40975;50.390;8.640;2023-11-21T06:02:47;98630.03;;;6.61;100.00
54389;BME280;40975;50.390;8.640;2023-11-21T06:05:15;98628.78;;;6.56;100.00
54389;BME280;40975;50.390;8.640;2023-11-21T06:07:40;98631.97;;;6.59;100.00
54389;BME280;40975;50.390;8.640;2023-11-21T06:10:07;98639.63;;;6.62;100.00
54389;BME280;40975;50.390;8.640;2023-11-21T06:12:37;98643.78;;;6.55;100.00
54389;BME280;40975;50.390;8.640;2023-11-21T06:15:06;98646.41;;;6.55;100.00
54389;BME280;40975;50.390;8.640;2023-11-21T06:17:34;98648.91;;;6.57;100.00
54389;BME280;40975;50.390;8.640;2023-11-21T06:20:06;98645.44;;;6.56;100.00
54389;BME280;40975;50.390;8.640;2023-11-21T06:22:38;98663.63;;;6.59;100.00
54389;BME280;40975;50.390;8.640;2023-11-21T06:25:05;98674.69;;;6.53;100.00
54389;BME280;40975;50.390;8.640;2023-11-21T06:27:42;98674.44;;;6.56;100.00
54389;BME280;40975;50.390;8.640;2023-11-21T06:30:08;98669.88;;;6.58;100.00
54389;BME280;40975;50.390;8.640;2023-11-21T06:32:35;98672.53;;;6.58;100.00
54389;BME280;40975;50.390;8.640;2023-11-21T06:35:02;98675.59;;;6.63;100.00
54389;BME280;40975;50.390;8.640;2023-11-21T06:37:29;98679.44;;;6.59;100.00
54389;BME280;40975;50.390;8.640;2023-11-21T06:39:55;98677.50;;;6.61;100.00
54389;BME280;40975;50.390;8.640;2023-11-21T06:42:21;98684.72;;;6.59;100.00
54389;BME280;40975;50.390;8.640;2023-11-21T06:44:47;98685.56;;;6.60;100.00
54389;BME280;40975;50.390;8.640;2023-11-21T06:47:14;98682.22;;;6.58;100.00
54389;BME280;40975;50.390;8.640;2023-11-21T06:49:39;98687.09;;;6.62;100.00
54389;BME280;40975;50.390;8.640;2023-11-21T06:52:05;98699.31;;;6.63;100.00
54389;BME280;40975;50.390;8.640;2023-11-21T06:54:31;98699.72;;;6.59;100.00
54389;BME280;40975;50.390;8.640;2023-11-21T06:56:56;98703.88;;;6.61;100.00
54389;BME280;40975;50.390;8.640;2023-11-21T06:59:22;98700.03;;;6.65;100.00
54389;BME280;40975;50.390;8.640;2023-11-21T07:01:47;98712.25;;;6.66;100.00
54389;BME280;40975;50.390;8.640;2023-11-21T07:04:13;98716.66;;;6.66;100.00
54389;BME280;40975;50.390;8.640;2023-11-21T07:06:38;98713.06;;;6.67;100.00
54389;BME280;40975;50.390;8.640;2023-11-21T07:09:03;98711.69;;;6.63;100.00
54389;BME280;40975;50.390;8.640;2023-11-21T07:11:29;98710.44;;;6.67;100.00
54389;BME280;40975;50.390;8.640;2023-11-21T07:13:54;98723.50;;;6.68;100.00
54389;BME280;40975;50.390;8.640;2023-11-21T07:16:19;98730.31;;;6.71;100.00
54389;BME280;40975;50.390;8.640;2023-11-21T07:18:45;98735.00;;;6.67;100.00
54389;BME280;40975;50.390;8.640;2023-11-21T07:21:10;98749.34;;;6.75;100.00
54389;BME280;40975;50.390;8.640;2023-11-21T07:23:37;98744.22;;;6.73;100.00
54389;BME280;40975;50.390;8.640;2023-11-21T07:26:03;98746.56;;;6.76;100.00
54389;BME280;40975;50.390;8.640;2023-11-21T07:28:29;98744.31;;;6.72;100.00
54389;BME280;40975;50.390;8.640;2023-11-21T07:30:55;98749.50;;;6.83;100.00
54389;BME280;40975;50.390;8.640;2023-11-21T07:33:20;98757.56;;;6.81;100.00
54389;BME280;40975;50.390;8.640;2023-11-21T07:35:46;98759.25;;;6.82;100.00
54389;BME280;40975;50.390;8.640;2023-11-21T07:38:12;98759.81;;;6.86;100.00
54389;BME280;40975;50.390;8.640;2023-11-21T07:40:38;98762.75;;;6.93;100.00
54389;BME280;40975;50.390;8.640;2023-11-21T07:43:03;98761.97;;;7.02;100.00
54389;BME280;40975;50.390;8.640;2023-11-21T07:45:28;98769.34;;;7.08;100.00
54389;BME280;40975;50.390;8.640;2023-11-21T07:47:54;98769.59;;;7.05;100.00
54389;BME280;40975;50.390;8.640;2023-11-21T07:50:21;98771.41;;;7.05;100.00
54389;BME280;40975;50.390;8.640;2023-11-21T07:52:46;98770.56;;;7.04;100.00
54389;BME280;40975;50.390;8.640;2023-11-21T07:55:12;98757.59;;;6.91;100.00
54389;BME280;40975;50.390;8.640;2023-11-21T07:57:37;98775.59;;;7.07;100.00
54389;BME280;40975;50.390;8.640;2023-11-21T08:00:04;98776.28;;;7.09;100.00
54389;BME280;40975;50.390;8.640;2023-11-21T08:02:39;98775.91;;;7.14;100.00
54389;BME280;40975;50.390;8.640;2023-11-21T08:05:05;98781.34;;;7.22;100.00
54389;BME280;40975;50.390;8.640;2023-11-21T08:07:32;98788.44;;;7.31;100.00
54389;BME280;40975;50.390;8.640;2023-11-21T08:09:57;98789.63;;;7.49;100.00
54389;BME280;40975;50.390;8.640;2023-11-21T08:12:23;98798.97;;;7.62;100.00
54389;BME280;40975;50.390;8.640;2023-11-21T08:14:49;98800.38;;;7.76;100.00
54389;BME280;40975;50.390;8.640;2023-11-21T08:17:14;98806.50;;;7.77;100.00
54389;BME280;40975;50.390;8.640;2023-11-21T08:19:39;98809.03;;;7.88;100.00
54389;BME280;40975;50.390;8.640;2023-11-21T08:22:05;98808.75;;;7.91;100.00
54389;BME280;40975;50.390;8.640;2023-11-21T08:24:33;98812.66;;;7.87;100.00
54389;BME280;40975;50.390;8.640;2023-11-21T08:26:58;98819.31;;;7.91;100.00
54389;BME280;40975;50.390;8.640;2023-11-21T08:29:23;98819.06;;;7.94;100.00
54389;BME280;40975;50.390;8.640;2023-11-21T08:31:49;98821.84;;;8.03;100.00
54389;BME280;40975;50.390;8.640;2023-11-21T08:34:14;98828.13;;;8.12;100.00
54389;BME280;40975;50.390;8.640;2023-11-21T08:36:43;98826.44;;;8.20;100.00
54389;BME280;40975;50.390;8.640;2023-11-21T08:39:08;98833.94;;;8.25;100.00
54389;BME280;40975;50.390;8.640;2023-11-21T08:41:34;98829.06;;;8.40;100.00
54389;BME280;40975;50.390;8.640;2023-11-21T08:44:02;98843.16;;;8.60;100.00
54389;BME280;40975;50.390;8.640;2023-11-21T08:46:27;98832.44;;;8.71;100.00
54389;BME280;40975;50.390;8.640;2023-11-21T08:48:52;98842.25;;;8.99;100.00
54389;BME280;40975;50.390;8.640;2023-11-21T08:51:18;98842.00;;;9.40;100.00
54389;BME280;40975;50.390;8.640;2023-11-21T08:53:43;98843.16;;;9.55;100.00
54389;BME280;40975;50.390;8.640;2023-11-21T08:56:12;98841.63;;;9.62;100.00
54389;BME280;40975;50.390;8.640;2023-11-21T08:58:39;98839.09;;;9.61;100.00
54389;BME280;40975;50.390;8.640;2023-11-21T09:01:04;98836.09;;;10.02;100.00
54389;BME280;40975;50.390;8.640;2023-11-21T09:03:31;98837.44;;;12.66;100.00
54389;BME280;40975;50.390;8.640;2023-11-21T09:05:59;98833.91;;;13.63;91.53
54389;BME280;40975;50.390;8.640;2023-11-21T09:08:24;98821.03;;;15.81;77.89
54389;BME280;40975;50.390;8.640;2023-11-21T09:10:50;98824.13;;;17.50;68.91
54389;BME280;40975;50.390;8.640;2023-11-21T09:13:15;98830.44;;;18.53;64.81
54389;BME280;40975;50.390;8.640;2023-11-21T09:15:42;98834.34;;;18.37;63.21
54389;BME280;40975;50.390;8.640;2023-11-21T09:18:14;98834.31;;;19.45;59.11
54389;BME280;40975;50.390;8.640;2023-11-21T09:20:40;98841.63;;;19.04;60.84
54389;BME280;40975;50.390;8.640;2023-11-21T09:23:05;98847.13;;;20.08;57.24
54389;BME280;40975;50.390;8.640;2023-11-21T09:25:32;98847.78;;;18.30;61.82
54389;BME280;40975;50.390;8.640;2023-11-21T09:27:57;98856.59;;;16.99;65.02
54389;BME280;40975;50.390;8.640;2023-11-21T09:30:23;98870.91;;;17.83;66.43
54389;BME280;40975;50.390;8.640;2023-11-21T09:32:50;98862.25;;;18.36;62.93
54389;BME280;40975;50.390;8.640;2023-11-21T09:35:15;98877.78;;;17.22;64.79
54389;BME280;40975;50.390;8.640;2023-11-21T09:37:44;98881.38;;;15.54;71.32
54389;BME280;40975;50.390;8.640;2023-11-21T09:40:11;98877.03;;;14.38;74.97
54389;BME280;40975;50.390;8.640;2023-11-21T09:42:56;98893.44;;;13.95;83.10
54389;BME280;40975;50.390;8.640;2023-11-21T09:45:26;98898.41;;;13.67;84.92
54389;BME280;40975;50.390;8.640;2023-11-21T09:47:56;98893.69;;;14.17;83.23
54389;BME280;40975;50.390;8.640;2023-11-21T09:50:22;98881.41;;;14.31;80.43
54389;BME280;40975;50.390;8.640;2023-11-21T09:52:55;98886.69;;;14.16;81.60
54389;BME280;40975;50.390;8.640;2023-11-21T09:55:26;98886.81;;;14.46;81.52
54389;BME280;40975;50.390;8.640;2023-11-21T09:57:53;98867.81;;;14.18;78.95
54389;BME280;40975;50.390;8.640;2023-11-21T10:00:28;98876.03;;;14.62;73.61
54389;BME280;40975;50.390;8.640;2023-11-21T10:02:57;98872.88;;;14.59;72.89
54389;BME280;40975;50.390;8.640;2023-11-21T10:05:23;98893.78;;;14.55;78.74
54389;BME280;40975;50.390;8.640;2023-11-21T10:07:50;98890.97;;;14.25;77.62
54389;BME280;40975;50.390;8.640;2023-11-21T10:10:18;98900.97;;;13.52;82.86
54389;BME280;40975;50.390;8.640;2023-11-21T10:12:50;98916.44;;;13.48;85.77
54389;BME280;40975;50.390;8.640;2023-11-21T10:15:21;98918.50;;;13.13;87.13
54389;BME280;40975;50.390;8.640;2023-11-21T10:17:48;98906.16;;;12.71;89.87
54389;BME280;40975;50.390;8.640;2023-11-21T10:20:14;98906.47;;;12.35;92.00
54389;BME280;40975;50.390;8.640;2023-11-21T10:22:41;98909.94;;;11.84;94.25
54389;BME280;40975;50.390;8.640;2023-11-21T10:25:10;98909.97;;;11.58;96.56
54389;BME280;40975;50.390;8.640;2023-11-21T10:27:37;98914.75;;;11.46;99.41
54389;BME280;40975;50.390;8.640;2023-11-21T10:30:05;98917.66;;;11.61;100.00
54389;BME280;40975;50.390;8.640;2023-11-21T10:32:30;98922.06;;;11.52;100.00
54389;BME280;40975;50.390;8.640;2023-11-21T10:34:58;98928.06;;;11.54;100.00
54389;BME280;40975;50.390;8.640;2023-11-21T10:37:25;98930.47;;;11.65;100.00
54389;BME280;40975;50.390;8.640;2023-11-21T10:39:57;98928.53;;;11.49;100.00
54389;BME280;40975;50.390;8.640;2023-11-21T10:42:22;98926.09;;;11.30;99.15
54389;BME280;40975;50.390;8.640;2023-11-21T10:44:49;98932.66;;;11.17;100.00
54389;BME280;40975;50.390;8.640;2023-11-21T10:47:14;98920.78;;;11.30;100.00
54389;BME280;40975;50.390;8.640;2023-11-21T10:49:40;98923.19;;;11.76;100.00
54389;BME280;40975;50.390;8.640;2023-11-21T10:52:06;98932.09;;;12.44;99.78
54389;BME280;40975;50.390;8.640;2023-11-21T10:54:31;98922.81;;;12.89;96.15
54389;BME280;40975;50.390;8.640;2023-11-21T10:56:57;98915.66;;;12.65;90.86
54389;BME280;40975;50.390;8.640;2023-11-21T10:59:25;98921.75;;;12.33;92.68
54389;BME280;40975;50.390;8.640;2023-11-21T11:01:54;98932.19;;;12.18;94.02
54389;BME280;40975;50.390;8.640;2023-11-21T11:04:19;98927.28;;;12.48;96.61
54389;BME280;40975;50.390;8.640;2023-11-21T11:06:55;98927.75;;;12.35;93.51
54389;BME280;40975;50.390;8.640;2023-11-21T11:09:22;98928.56;;;12.27;95.41
54389;BME280;40975;50.390;8.640;2023-11-21T11:11:48;98937.03;;;12.22;97.34
54389;BME280;40975;50.390;8.640;2023-11-21T11:14:14;98943.56;;;12.36;100.00
54389;BME280;40975;50.390;8.640;2023-11-21T11:16:41;98936.84;;;12.24;99.56
54389;BME280;40975;50.390;8.640;2023-11-21T11:19:07;98932.38;;;12.16;98.47
54389;BME280;40975;50.390;8.640;2023-11-21T11:21:48;98931.69;;;11.79;97.69
54389;BME280;40975;50.390;8.640;2023-11-21T11:27:25;98926.13;;;11.64;100.00
54389;BME280;40975;50.390;8.640;2023-11-21T11:36:03;98932.09;;;10.87;100.00
54389;BME280;40975;50.390;8.640;2023-11-21T11:38:32;98930.94;;;10.90;100.00
54389;BME280;40975;50.390;8.640;2023-11-21T11:41:02;98942.34;;;10.82;100.00
54389;BME280;40975;50.390;8.640;2023-11-21T11:43:29;98938.06;;;10.71;100.00
54389;BME280;40975;50.390;8.640;2023-11-21T11:45:58;98940.50;;;10.65;100.00
54389;BME280;40975;50.390;8.640;2023-11-21T11:48:24;98947.47;;;10.66;100.00
54389;BME280;40975;50.390;8.640;2023-11-21T11:51:12;98944.75;;;10.57;100.00
54389;BME280;40975;50.390;8.640;2023-11-21T11:53:47;98947.13;;;10.61;100.00
54389;BME280;40975;50.390;8.640;2023-11-21T11:56:30;98944.38;;;10.52;100.00
54389;BME280;40975;50.390;8.640;2023-11-21T11:58:58;98937.25;;;10.53;100.00
54389;BME280;40975;50.390;8.640;2023-11-21T12:01:26;98934.59;;;10.53;100.00
54389;BME280;40975;50.390;8.640;2023-11-21T12:06:43;98933.88;;;10.33;100.00
54389;BME280;40975;50.390;8.640;2023-11-21T12:09:18;98936.09;;;10.37;100.00
54389;BME280;40975;50.390;8.640;2023-11-21T12:11:46;98944.06;;;10.37;100.00
54389;BME280;40975;50.390;8.640;2023-11-21T12:14:12;98940.97;;;10.32;100.00
54389;BME280;40975;50.390;8.640;2023-11-21T12:16:39;98942.28;;;10.28;100.00
54389;BME280;40975;50.390;8.640;2023-11-21T12:19:04;98944.25;;;10.26;100.00
54389;BME280;40975;50.390;8.640;2023-11-21T12:21:30;98946.47;;;10.21;100.00
54389;BME280;40975;50.390;8.640;2023-11-21T12:23:57;98948.66;;;10.35;100.00
54389;BME280;40975;50.390;8.640;2023-11-21T12:26:24;98944.94;;;10.28;100.00
54389;BME280;40975;50.390;8.640;2023-11-21T12:28:53;98947.78;;;10.17;100.00
54389;BME280;40975;50.390;8.640;2023-11-21T12:31:21;98947.38;;;10.11;100.00
54389;BME280;40975;50.390;8.640;2023-11-21T12:33:46;98950.44;;;10.17;100.00
54389;BME280;40975;50.390;8.640;2023-11-21T12:36:12;98960.06;;;10.18;100.00
54389;BME280;40975;50.390;8.640;2023-11-21T12:38:38;98960.91;;;10.08;100.00
54389;BME280;40975;50.390;8.640;2023-11-21T12:41:03;98960.50;;;10.13;100.00
54389;BME280;40975;50.390;8.640;2023-11-21T12:43:29;98961.88;;;10.17;100.00
54389;BME280;40975;50.390;8.640;2023-11-21T12:46:08;98959.66;;;10.13;100.00
54389;BME280;40975;50.390;8.640;2023-11-21T12:48:39;98977.78;;;10.17;100.00
54389;BME280;40975;50.390;8.640;2023-11-21T12:51:06;98970.25;;;10.13;100.00
54389;BME280;40975;50.390;8.640;2023-11-21T12:53:32;98974.06;;;10.10;100.00
54389;BME280;40975;50.390;8.640;2023-11-21T12:56:06;98977.84;;;10.07;100.00
54389;BME280;40975;50.390;8.640;2023-11-21T12:58:34;98979.34;;;10.10;100.00
54389;BME280;40975;50.390;8.640;2023-11-21T13:01:01;98977.84;;;10.07;100.00
54389;BME280;40975;50.390;8.640;2023-11-21T13:03:29;98972.28;;;10.01;100.00
54389;BME280;40975;50.390;8.640;2023-11-21T13:05:55;98976.63;;;9.92;100.00
54389;BME280;40975;50.390;8.640;2023-11-21T13:08:23;98971.94;;;9.86;100.00